Time;durP1;ratioP1;P1;durP2;ratioP2;P2;SDS_P1;SDS_P2;PMS_P1;PMS_P2;Temp;Humidity;BMP_temperature;BMP_pressure;BME280_temperature;BME280_humidity;BME280_pressure;Samples;Min_cycle;Max_cycle;Signal;HPM_P1;HPM_P2
2021/10/13 00:02:19;;;;;;;;;;;;;;;-144.99;100.00;52439.94;5048985;28;20004;-59
2021/10/13 00:04:45;;;;;;;;;;;;;;;-144.99;100.00;52427.72;5052131;28;20365;-59
2021/10/13 00:07:13;;;;;;;;;;;;;;;-144.99;100.00;52439.94;5051779;28;20441;-60
2021/10/13 00:09:39;;;;;;;;;;;;;;;-144.99;100.00;52435.88;5052666;28;20012;-61
2021/10/13 00:12:06;;;;;;;;;;;;;;;-144.99;100.00;52423.63;5038530;28;20488;-60
2021/10/13 00:14:32;;;;;;;;;;;;;;;-144.99;100.00;52464.41;5052555;28;19981;-60
2021/10/13 00:17:03;;;;;;;;;;;;;;;-144.99;100.00;52401.22;5051580;28;20375;-61
2021/10/13 00:19:29;;;;;;;;;;;;;;;-144.99;100.00;52393.06;5052324;28;19980;-61
2021/10/13 00:21:56;;;;;;;;;;;;;;;-144.99;100.00;52407.31;5051050;28;20350;-60
2021/10/13 00:24:24;;;;;;;;;;;;;;;-144.99;100.00;52444.03;5046402;28;19996;-60
2021/10/13 00:26:50;;;;;;;;;;;;;;;-144.99;100.00;52439.94;5041043;28;19984;-57
2021/10/13 00:29:16;;;;;;;;;;;;;;;-144.99;100.00;52435.88;5044128;28;19981;-57
2021/10/13 00:31:43;;;;;;;;;;;;;;;-144.99;100.00;52450.13;5051212;28;20399;-58
2021/10/13 00:34:09;;;;;;;;;;;;;;;-144.99;100.00;52411.41;5051467;28;19996;-60
2021/10/13 00:36:35;;;;;;;;;;;;;;;-144.99;100.00;52417.53;5051146;28;20000;-59
2021/10/13 00:39:02;;;;;;;;;;;;;;;-144.99;100.00;52433.81;5051091;28;19987;-60
2021/10/13 00:41:29;;;;;;;;;;;;;;;-144.99;100.00;52435.88;5050991;28;20005;-60
2021/10/13 00:43:56;;;;;;;;;;;;;;;-144.99;100.00;52439.94;5051471;28;19977;-60
2021/10/13 00:46:22;;;;;;;;;;;;;;;-144.99;100.00;52431.78;5051665;28;19973;-60
2021/10/13 00:48:48;;;;;;;;;;;;;;;-144.99;100.00;52439.94;5051938;28;19981;-61
2021/10/13 00:51:15;;;;;;;;;;;;;;;-144.99;100.00;52431.78;5051221;28;19981;-63
2021/10/13 00:53:41;;;;;;;;;;;;;;;-144.99;100.00;52439.94;5051034;28;20426;-63
2021/10/13 00:56:08;;;;;;;;;;;;;;;-144.99;100.00;52456.25;5052314;28;20011;-64
2021/10/13 00:58:35;;;;;;;;;;;;;;;-144.99;100.00;52448.09;5050840;28;20361;-62
2021/10/13 01:01:03;;;;;;;;;;;;;;;-144.99;100.00;52433.81;5050873;28;19984;-62
2021/10/13 01:03:34;;;;;;;;;;;;;;;-144.99;100.00;52407.31;5043902;28;19974;-64
2021/10/13 01:06:04;;;;;;;;;;;;;;;-144.99;100.00;52407.31;5042642;28;20195;-62
2021/10/13 01:08:40;;;;;;;;;;;;;;;-144.99;100.00;52431.78;5051118;28;19981;-62
2021/10/13 01:11:15;;;;;;;;;;;;;;;-144.99;100.00;52421.59;5050815;28;19985;-63
2021/10/13 01:13:49;;;;;;;;;;;;;;;-144.99;100.00;52417.53;5050780;28;19981;-61
2021/10/13 01:16:22;;;;;;;;;;;;;;;-144.99;100.00;52427.72;5051182;28;20043;-62
2021/10/13 01:18:50;;;;;;;;;;;;;;;-144.99;100.00;52452.16;5051008;28;19981;-62
2021/10/13 01:21:21;;;;;;;;;;;;;;;-144.99;100.00;52444.03;5050766;28;20000;-61
2021/10/13 01:24:05;;;;;;;;;;;;;;;-144.99;100.00;52429.75;5038980;28;20430;-61
2021/10/13 01:26:37;;;;;;;;;;;;;;;-144.99;100.00;52419.56;5039527;28;19988;-61
2021/10/13 01:29:08;;;;;;;;;;;;;;;-144.99;100.00;52427.72;5050447;28;20004;-61
2021/10/13 01:31:38;;;;;;;;;;;;;;;-144.99;100.00;52476.63;5050264;28;20001;-61
2021/10/13 01:34:08;;;;;;;;;;;;;;;-144.99;100.00;52413.44;5050416;28;19981;-62
2021/10/13 01:36:39;;;;;;;;;;;;;;;-144.99;100.00;52407.31;5050503;28;19993;-60
2021/10/13 01:39:05;;;;;;;;;;;;;;;-144.99;100.00;52403.25;5049865;28;20016;-60
2021/10/13 01:41:33;;;;;;;;;;;;;;;-144.99;100.00;52403.25;5049446;28;20484;-60
2021/10/13 01:44:00;;;;;;;;;;;;;;;-144.99;100.00;52429.75;5049851;28;19985;-60
2021/10/13 01:46:30;;;;;;;;;;;;;;;-144.99;100.00;52435.88;5049610;28;21665;-60
2021/10/13 01:48:59;;;;;;;;;;;;;;;-144.99;100.00;52431.78;5050209;28;19981;-60
2021/10/13 01:51:26;;;;;;;;;;;;;;;-144.99;100.00;52444.03;5049869;28;20450;-61
2021/10/13 01:53:53;;;;;;;;;;;;;;;-144.99;100.00;52423.63;5037886;28;20434;-60
2021/10/13 01:56:22;;;;;;;;;;;;;;;-144.99;100.00;52433.81;5046137;28;20442;-60
2021/10/13 01:58:50;;;;;;;;;;;;;;;-144.99;100.00;52378.78;5050123;28;19988;-60
2021/10/13 02:01:18;;;;;;;;;;;;;;;-144.99;100.00;52415.47;5049923;28;19973;-58
2021/10/13 02:03:47;;;;;;;;;;;;;;;-144.99;100.00;52444.03;5046756;28;19980;-60
2021/10/13 02:06:16;;;;;;;;;;;;;;;-144.99;100.00;52448.09;5049802;28;19981;-60
2021/10/13 02:08:43;;;;;;;;;;;;;;;-144.99;100.00;52415.47;5049232;28;19985;-60
2021/10/13 02:11:10;;;;;;;;;;;;;;;-144.99;100.00;52391.03;5040460;28;19978;-60
2021/10/13 02:13:38;;;;;;;;;;;;;;;-144.99;100.00;52439.94;5045761;28;19981;-59
2021/10/13 02:16:06;;;;;;;;;;;;;;;-144.99;100.00;52423.63;5049739;28;20004;-60
2021/10/13 02:18:34;;;;;;;;;;;;;;;-144.99;100.00;52399.19;5049806;28;19981;-60
2021/10/13 02:21:03;;;;;;;;;;;;;;;-144.99;100.00;52427.72;5049220;28;19977;-61
2021/10/13 02:23:31;;;;;;;;;;;;;;;-144.99;100.00;52423.63;5049614;28;20068;-60
2021/10/13 02:25:58;;;;;;;;;;;;;;;-144.99;100.00;52423.63;5040808;28;19981;-61
2021/10/13 02:28:31;;;;;;;;;;;;;;;-144.99;100.00;52425.66;5039878;28;19977;-61
2021/10/13 02:30:57;;;;;;;;;;;;;;;-144.99;100.00;52395.09;5049919;28;20352;-61
2021/10/13 02:33:24;;;;;;;;;;;;;;;-144.99;100.00;52401.22;5049637;28;20004;-61
2021/10/13 02:35:51;;;;;;;;;;;;;;;-144.99;100.00;52399.19;5049300;28;20482;-61
2021/10/13 02:38:18;;;;;;;;;;;;;;;-144.99;100.00;52425.66;5036515;28;20028;-61
2021/10/13 02:40:45;;;;;;;;;;;;;;;-144.99;100.00;52366.56;5049372;28;19985;-61
2021/10/13 02:43:12;;;;;;;;;;;;;;;-144.99;100.00;52439.94;5049665;28;20465;-61
2021/10/13 02:45:39;;;;;;;;;;;;;;;-144.99;100.00;52480.72;5048852;28;19987;-61
2021/10/13 02:48:08;;;;;;;;;;;;;;;-144.99;100.00;52423.63;5049969;28;20438;-62
2021/10/13 02:50:35;;;;;;;;;;;;;;;-144.99;100.00;52427.72;5050021;28;19988;-61
2021/10/13 02:53:04;;;;;;;;;;;;;;;-144.99;100.00;52376.75;5049004;28;20043;-61
2021/10/13 02:55:33;;;;;;;;;;;;;;;-144.99;100.00;52391.03;5039518;28;20497;-61
2021/10/13 02:58:03;;;;;;;;;;;;;;;-144.99;100.00;52415.47;5045298;28;19997;-61
2021/10/13 03:00:32;;;;;;;;;;;;;;;-144.99;100.00;52419.56;5049246;28;19976;-62
2021/10/13 03:03:01;;;;;;;;;;;;;;;-144.99;100.00;52423.63;5045997;28;19997;-62
2021/10/13 03:05:27;;;;;;;;;;;;;;;-144.99;100.00;52403.25;5037263;28;19980;-65
2021/10/13 03:07:57;;;;;;;;;;;;;;;-144.99;100.00;52439.94;5047234;28;19981;-62
2021/10/13 03:10:26;;;;;;;;;;;;;;;-144.99;100.00;52427.72;5049088;28;20012;-62
2021/10/13 03:12:56;;;;;;;;;;;;;;;-144.99;100.00;52403.25;5048727;28;20751;-61
2021/10/13 03:15:23;;;;;;;;;;;;;;;-144.99;100.00;52468.47;5048973;28;19981;-61
2021/10/13 03:17:52;;;;;;;;;;;;;;;-144.99;100.00;52448.09;5049558;28;20142;-66
2021/10/13 03:20:19;;;;;;;;;;;;;;;-144.99;100.00;52448.09;5049378;28;19989;-65
2021/10/13 03:22:46;;;;;;;;;;;;;;;-144.99;100.00;52382.88;5047526;28;20150;-66
2021/10/13 03:25:12;;;;;;;;;;;;;;;-144.99;100.00;52444.03;5045948;28;19977;-67
2021/10/13 03:27:38;;;;;;;;;;;;;;;-144.99;100.00;52417.53;5052341;28;19981;-66
2021/10/13 03:30:08;;;;;;;;;;;;;;;-144.99;100.00;52431.78;5053060;28;19988;-67
2021/10/13 03:32:35;;;;;;;;;;;;;;;-144.99;100.00;52417.53;5052663;28;19997;-66
2021/10/13 03:35:01;;;;;;;;;;;;;;;-144.99;100.00;52423.63;5052775;28;19984;-66
2021/10/13 03:37:27;;;;;;;;;;;;;;;-144.99;100.00;52419.56;5052186;28;20372;-66
2021/10/13 03:39:56;;;;;;;;;;;;;;;-144.99;100.00;52372.69;5052865;28;20377;-66
2021/10/13 03:42:22;;;;;;;;;;;;;;;-144.99;100.00;52429.75;5066270;22;20102;-63
2021/10/13 03:44:49;;;;;;;;;;;;;;;-144.99;100.00;52458.28;5061989;28;20084;-63
2021/10/13 03:47:16;;;;;;;;;;;;;;;-144.99;100.00;52431.78;5071672;28;19984;-63
2021/10/13 03:49:43;;;;;;;;;;;;;;;-144.99;100.00;52441.97;5072117;28;19981;-63
2021/10/13 03:52:09;;;;;;;;;;;;;;;-144.99;100.00;52435.88;5060872;28;19932;-63
2021/10/13 03:54:36;;;;;;;;;;;;;;;-144.99;100.00;52448.09;5052494;28;19973;-63
2021/10/13 03:57:02;;;;;;;;;;;;;;;-144.99;100.00;52403.25;5031363;28;20083;-63
2021/10/13 03:59:29;;;;;;;;;;;;;;;-144.99;100.00;52423.63;5032144;28;19985;-63
2021/10/13 04:01:55;;;;;;;;;;;;;;;-144.99;100.00;52399.19;5052465;28;20084;-64
2021/10/13 04:04:23;;;;;;;;;;;;;;;-144.99;100.00;52419.56;5047078;28;19985;-64
2021/10/13 04:06:49;;;;;;;;;;;;;;;-144.99;100.00;52415.47;5030990;28;19978;-67
2021/10/13 04:09:15;;;;;;;;;;;;;;;-144.99;100.00;52437.91;5031465;28;19982;-68
2021/10/13 04:11:41;;;;;;;;;;;;;;;-144.99;100.00;52429.75;5055639;28;19992;-68
2021/10/13 04:14:08;;;;;;;;;;;;;;;-144.99;100.00;52395.09;5031182;28;20354;-69
2021/10/13 04:16:34;;;;;;;;;;;;;;;-144.99;100.00;52417.53;5031033;28;19988;-69
2021/10/13 04:19:01;;;;;;;;;;;;;;;-144.99;100.00;52431.78;5031272;28;20028;-69
2021/10/13 04:21:28;;;;;;;;;;;;;;;-144.99;100.00;52456.25;5036168;28;19994;-69
2021/10/13 04:23:55;;;;;;;;;;;;;;;-144.99;100.00;52448.09;5040314;28;20383;-69
2021/10/13 04:26:21;;;;;;;;;;;;;;;-144.99;100.00;52419.56;5061016;28;20076;-69
2021/10/13 04:28:47;;;;;;;;;;;;;;;-144.99;100.00;52419.56;5050318;28;19978;-69
2021/10/13 04:31:15;;;;;;;;;;;;;;;-144.99;100.00;52403.25;5030796;28;19989;-69
2021/10/13 04:33:41;;;;;;;;;;;;;;;-144.99;100.00;52423.63;5029777;28;19996;-68
2021/10/13 04:36:07;;;;;;;;;;;;;;;-144.99;100.00;52456.25;5056209;28;19981;-68
2021/10/13 04:38:37;;;;;;;;;;;;;;;-144.99;100.00;52448.09;5030023;28;20422;-68
2021/10/13 04:41:03;;;;;;;;;;;;;;;-144.99;100.00;52419.56;5029998;28;19985;-68
2021/10/13 04:43:29;;;;;;;;;;;;;;;-144.99;100.00;52413.44;5033515;28;19984;-68
2021/10/13 04:45:56;;;;;;;;;;;;;;;-144.99;100.00;52439.94;5053317;28;20040;-68
2021/10/13 04:48:22;;;;;;;;;;;;;;;-144.99;100.00;52415.47;5035576;28;20388;-68
2021/10/13 04:50:48;;;;;;;;;;;;;;;-144.99;100.00;52415.47;5041246;28;19981;-67
2021/10/13 04:53:15;;;;;;;;;;;;;;;-144.99;100.00;52386.94;5032130;28;19997;-68
2021/10/13 04:55:42;;;;;;;;;;;;;;;-144.99;100.00;52407.31;5030969;28;20065;-67
2021/10/13 04:58:09;;;;;;;;;;;;;;;-144.99;100.00;52431.78;5029464;28;20001;-68
2021/10/13 05:00:35;;;;;;;;;;;;;;;-144.99;100.00;52403.25;5032711;28;20069;-68
2021/10/13 05:03:02;;;;;;;;;;;;;;;-144.99;100.00;52452.16;5041925;28;20005;-68
2021/10/13 05:05:28;;;;;;;;;;;;;;;-144.99;100.00;52407.31;5056621;28;20018;-68
2021/10/13 05:07:55;;;;;;;;;;;;;;;-144.99;100.00;52435.88;5032267;28;20003;-67
2021/10/13 05:10:21;;;;;;;;;;;;;;;-144.99;100.00;52431.78;5034706;28;19981;-67
2021/10/13 05:12:49;;;;;;;;;;;;;;;-144.99;100.00;52395.09;5031737;28;19998;-67
2021/10/13 05:15:18;;;;;;;;;;;;;;;-144.99;100.00;52456.25;5029912;28;19988;-67
2021/10/13 05:17:44;;;;;;;;;;;;;;;-144.99;100.00;52437.91;5029431;28;19997;-67
2021/10/13 05:20:11;;;;;;;;;;;;;;;-144.99;100.00;52452.16;5030155;28;19986;-67
2021/10/13 05:22:37;;;;;;;;;;;;;;;-144.99;100.00;52423.63;5051730;28;20466;-67
2021/10/13 05:25:04;;;;;;;;;;;;;;;-144.99;100.00;52431.78;5052557;28;19977;-67
2021/10/13 05:27:31;;;;;;;;;;;;;;;-144.99;100.00;52378.78;5049000;28;19985;-66
2021/10/13 05:29:58;;;;;;;;;;;;;;;-144.99;100.00;52407.31;5049380;28;20540;-67
2021/10/13 05:32:25;;;;;;;;;;;;;;;-144.99;100.00;52427.72;5049451;28;19997;-67
2021/10/13 05:34:51;;;;;;;;;;;;;;;-144.99;100.00;52456.25;5053907;28;20045;-66
2021/10/13 05:37:17;;;;;;;;;;;;;;;-144.99;100.00;52423.63;5032624;28;20001;-67
2021/10/13 05:39:44;;;;;;;;;;;;;;;-144.99;100.00;52393.06;5029283;28;20357;-67
2021/10/13 05:42:10;;;;;;;;;;;;;;;-144.99;100.00;52407.31;5034247;28;19997;-67
2021/10/13 05:44:37;;;;;;;;;;;;;;;-144.99;100.00;52448.09;5048470;28;19988;-68
2021/10/13 05:47:04;;;;;;;;;;;;;;;-144.99;100.00;52448.09;5049482;28;20008;-67
2021/10/13 05:49:31;;;;;;;;;;;;;;;-144.99;100.00;52395.09;5037034;28;19978;-67
2021/10/13 05:51:57;;;;;;;;;;;;;;;-144.99;100.00;52431.78;5053093;28;20003;-68
2021/10/13 05:54:23;;;;;;;;;;;;;;;-144.99;100.00;52448.09;5054810;28;19973;-67
2021/10/13 05:56:51;;;;;;;;;;;;;;;-144.99;100.00;52399.19;5043544;28;19982;-67
2021/10/13 05:59:17;;;;;;;;;;;;;;;-144.99;100.00;52439.94;5029544;28;20072;-67
2021/10/13 06:01:44;;;;;;;;;;;;;;;-144.99;100.00;52395.09;5048725;28;20029;-67
2021/10/13 06:04:12;;;;;;;;;;;;;;;-144.99;100.00;52384.91;5046665;28;20437;-67
2021/10/13 06:06:38;;;;;;;;;;;;;;;-144.99;100.00;52435.88;5028645;28;20434;-67
2021/10/13 06:09:04;;;;;;;;;;;;;;;-144.99;100.00;52415.47;5029130;28;20389;-67
2021/10/13 06:11:31;;;;;;;;;;;;;;;-144.99;100.00;52446.06;5052454;28;20004;-68
2021/10/13 06:13:57;;;;;;;;;;;;;;;-144.99;100.00;52419.56;5031036;28;19992;-68
2021/10/13 06:16:24;;;;;;;;;;;;;;;-144.99;100.00;52444.03;5029322;28;19981;-68
2021/10/13 06:18:51;;;;;;;;;;;;;;;-144.99;100.00;52439.94;5029598;28;19997;-68
2021/10/13 06:21:19;;;;;;;;;;;;;;;-144.99;100.00;52399.19;5034556;28;19981;-68
2021/10/13 06:23:45;;;;;;;;;;;;;;;-144.99;100.00;52362.50;5049291;28;19973;-68
2021/10/13 06:26:12;;;;;;;;;;;;;;;-144.99;100.00;52423.63;5067365;28;19973;-68
2021/10/13 06:28:38;;;;;;;;;;;;;;;-144.99;100.00;52423.63;5049056;28;19978;-69
2021/10/13 06:31:04;;;;;;;;;;;;;;;-144.99;100.00;52427.72;5028931;28;19989;-69
2021/10/13 06:33:32;;;;;;;;;;;;;;;-144.99;100.00;52395.09;5029033;28;20307;-69
2021/10/13 06:35:59;;;;;;;;;;;;;;;-144.99;100.00;52388.97;5054976;28;20044;-69
2021/10/13 06:38:26;;;;;;;;;;;;;;;-144.99;100.00;52360.44;5028427;28;20365;-68
2021/10/13 06:40:53;;;;;;;;;;;;;;;-144.99;100.00;52423.63;5028431;28;20335;-68
2021/10/13 06:43:19;;;;;;;;;;;;;;;-144.99;100.00;52397.13;5030420;28;20427;-68
2021/10/13 06:45:46;;;;;;;;;;;;;;;-144.99;100.00;52407.31;5049907;28;19992;-69
2021/10/13 06:48:13;;;;;;;;;;;;;;;-144.99;100.00;52358.41;5036721;28;19982;-68
2021/10/13 06:50:39;;;;;;;;;;;;;;;-144.99;100.00;52403.25;5028507;28;20393;-68
2021/10/13 06:53:05;;;;;;;;;;;;;;;-144.99;100.00;52458.28;5028118;28;20004;-69
2021/10/13 06:55:33;;;;;;;;;;;;;;;-144.99;100.00;52419.56;5029092;28;19981;-69
2021/10/13 06:58:00;;;;;;;;;;;;;;;-144.99;100.00;52403.25;5031641;28;19997;-69
2021/10/13 07:00:26;;;;;;;;;;;;;;;-144.99;100.00;52391.03;5032433;28;19986;-68
2021/10/13 07:02:52;;;;;;;;;;;;;;;-144.99;100.00;52415.47;5050756;28;20204;-69
2021/10/13 07:05:19;;;;;;;;;;;;;;;-144.99;100.00;52393.06;5056565;28;20363;-68
2021/10/13 07:07:47;;;;;;;;;;;;;;;-144.99;100.00;52415.47;5037070;28;19982;-69
2021/10/13 07:10:13;;;;;;;;;;;;;;;-144.99;100.00;52382.88;5035189;28;19988;-69
2021/10/13 07:12:41;;;;;;;;;;;;;;;-144.99;100.00;52415.47;5048427;28;20016;-69
2021/10/13 07:15:09;;;;;;;;;;;;;;;-144.99;100.00;52384.91;5032221;28;19982;-69
2021/10/13 07:17:35;;;;;;;;;;;;;;;-144.99;100.00;52444.03;5033616;28;19981;-69
2021/10/13 07:20:04;;;;;;;;;;;;;;;-144.99;100.00;52336.00;5032154;28;19992;-69
2021/10/13 07:22:30;;;;;;;;;;;;;;;-144.99;100.00;52395.09;5050236;28;19989;-68
2021/10/13 07:24:57;;;;;;;;;;;;;;;-144.99;100.00;52386.94;5047593;28;19985;-71
2021/10/13 07:27:24;;;;;;;;;;;;;;;-144.99;100.00;52395.09;5031728;28;19990;-69
2021/10/13 07:29:56;;;;;;;;;;;;;;;-144.99;100.00;52427.72;5032009;28;20056;-70
2021/10/13 07:32:24;;;;;;;;;;;;;;;-144.99;100.00;52366.56;5036003;28;19997;-69
2021/10/13 07:34:50;;;;;;;;;;;;;;;-144.99;100.00;52370.63;5052992;28;20262;-69
2021/10/13 07:37:17;;;;;;;;;;;;;;;-144.99;100.00;52374.72;5035493;28;19982;-69
2021/10/13 07:39:43;;;;;;;;;;;;;;;-144.99;100.00;52346.19;5031974;28;20384;-69
2021/10/13 07:42:11;;;;;;;;;;;;;;;-144.99;100.00;52329.88;5031408;28;20016;-68
2021/10/13 07:44:37;;;;;;;;;;;;;;;-144.99;100.00;52366.56;5043714;28;19992;-69
2021/10/13 07:47:05;;;;;;;;;;;;;;;-144.99;100.00;52346.19;5033402;28;19981;-69
2021/10/13 07:49:31;;;;;;;;;;;;;;;-144.99;100.00;52388.97;5032298;28;19981;-69
2021/10/13 07:51:58;;;;;;;;;;;;;;;-144.99;100.00;52374.72;5052680;28;19989;-69
2021/10/13 07:54:24;;;;;;;;;;;;;;;-144.99;99.27;52370.63;5060315;28;19995;-69
2021/10/13 07:56:51;;;;;;;;;;;;;;;-144.99;98.22;52342.09;5032286;28;19981;-69
2021/10/13 07:59:17;;;;;;;;;;;;;;;-144.99;97.24;52350.25;5032277;28;19998;-69
2021/10/13 08:01:43;;;;;;;;;;;;;;;-144.99;97.22;52325.81;5050926;28;20012;-70
2021/10/13 08:04:11;;;;;;;;;;;;;;;-144.99;96.42;52374.72;5048800;28;19983;-70
2021/10/13 08:06:38;;;;;;;;;;;;;;;-144.99;95.98;52370.63;5030586;28;20092;-70
2021/10/13 08:09:04;;;;;;;;;;;;;;;-144.99;96.33;52370.63;5031326;28;19985;-70
2021/10/13 08:11:30;;;;;;;;;;;;;;;-144.99;96.61;52338.03;5054373;28;19993;-70
2021/10/13 08:13:58;;;;;;;;;;;;;;;-144.99;95.01;52374.72;5032393;28;20077;-70
2021/10/13 08:16:24;;;;;;;;;;;;;;;-144.99;94.39;52344.16;5031773;28;20028;-70
2021/10/13 08:18:50;;;;;;;;;;;;;;;-144.99;93.31;52358.41;5031093;28;20481;-70
2021/10/13 08:21:18;;;;;;;;;;;;;;;-144.99;92.80;52348.22;5036228;28;20408;-70
2021/10/13 08:23:44;;;;;;;;;;;;;;;-144.99;93.36;52342.09;5050621;28;19973;-70
2021/10/13 08:26:11;;;;;;;;;;;;;;;-144.99;94.01;52350.25;5064030;28;19979;-70
2021/10/13 08:28:37;;;;;;;;;;;;;;;-144.99;94.51;52315.59;5049066;28;19985;-70
2021/10/13 08:31:04;;;;;;;;;;;;;;;-144.99;95.27;52356.38;5030668;28;19989;-69
2021/10/13 08:33:30;;;;;;;;;;;;;;;-144.99;96.21;52329.88;5030042;28;19985;-69
2021/10/13 08:35:56;;;;;;;;;;;;;;;-144.99;97.34;52350.25;5055221;28;19977;-69
2021/10/13 08:38:24;;;;;;;;;;;;;;;-144.99;97.81;52354.34;5030351;28;20459;-69
2021/10/13 08:40:51;;;;;;;;;;;;;;;-144.99;98.22;52366.56;5030361;28;19988;-69
2021/10/13 08:43:17;;;;;;;;;;;;;;;-144.99;98.42;52360.44;5031997;28;20048;-69
2021/10/13 08:45:43;;;;;;;;;;;;;;;-144.99;98.69;52352.28;5050788;28;19980;-69
2021/10/13 08:48:10;;;;;;;;;;;;;;;-144.99;98.84;52333.94;5036961;28;19993;-69
2021/10/13 08:50:37;;;;;;;;;;;;;;;-144.99;99.15;52309.50;5050465;28;19982;-70
2021/10/13 08:53:04;;;;;;;;;;;;;;;-144.99;98.95;52360.44;5034060;28;19997;-70
2021/10/13 08:55:32;;;;;;;;;;;;;;;-144.99;96.63;52321.72;5030626;28;19981;-68
2021/10/13 08:58:08;;;;;;;;;;;;;;;-144.99;95.51;52342.09;5029619;28;20443;-69
2021/10/13 09:00:34;;;;;;;;;;;;;;;-144.99;95.32;52329.88;5032368;28;20008;-69
2021/10/13 09:03:01;;;;;;;;;;;;;;;-144.99;93.92;52289.13;5046144;28;20329;-69
2021/10/13 09:05:27;;;;;;;;;;;;;;;-144.99;92.96;52317.66;5066178;28;19958;-69
2021/10/13 09:07:56;;;;;;;;;;;;;;;-144.99;93.51;52264.66;5033003;28;20005;-69
2021/10/13 09:10:26;;;;;;;;;;;;;;;-144.99;92.77;52317.66;5035027;28;19982;-69
2021/10/13 09:12:54;;;;;;;;;;;;;;;-144.99;91.97;52327.84;5030098;28;20119;-69
2021/10/13 09:15:24;;;;;;;;;;;;;;;-144.99;92.21;52313.56;5030060;28;20004;-69
2021/10/13 09:17:51;;;;;;;;;;;;;;;-144.99;92.10;52329.88;5029940;28;20085;-69
2021/10/13 09:20:18;;;;;;;;;;;;;;;-144.99;92.14;52313.56;5042640;28;20331;-69
2021/10/13 09:22:54;;;;;;;;;;;;;;;-144.99;91.11;52356.38;5050184;28;20092;-69
2021/10/13 09:25:21;;;;;;;;;;;;;;;-144.99;92.34;52354.34;5039884;28;19984;-69
2021/10/13 09:27:47;;;;;;;;;;;;;;;-144.99;92.70;52356.38;5029553;28;20168;-69
2021/10/13 09:30:15;;;;;;;;;;;;;;;-144.99;93.26;52342.09;5030098;28;19994;-70
2021/10/13 09:32:42;;;;;;;;;;;;;;;-144.99;91.70;52325.81;5029743;28;20358;-69
2021/10/13 09:35:08;;;;;;;;;;;;;;;-144.99;91.54;52346.19;5046301;28;19977;-69
2021/10/13 09:37:44;;;;;;;;;;;;;;;-144.99;90.58;52285.03;5029250;28;20369;-69
2021/10/13 09:40:11;;;;;;;;;;;;;;;-144.99;89.85;52305.41;5029563;28;20000;-70
2021/10/13 09:42:38;;;;;;;;;;;;;;;-144.99;87.84;52272.81;5029414;28;20028;-70
2021/10/13 09:45:05;;;;;;;;;;;;;;;-144.99;82.92;52268.72;5063492;22;20453;-70
2021/10/13 09:47:34;;;;;;;;;;;;;;;-144.99;79.99;52268.72;5061316;28;19981;-70
2021/10/13 09:50:00;;;;;;;;;;;;;;;-144.99;77.74;52299.31;5066452;28;20330;-70
2021/10/13 09:52:28;;;;;;;;;;;;;;;-144.99;77.00;52244.28;5059566;28;19997;-70
2021/10/13 09:54:58;;;;;;;;;;;;;;;-144.99;75.71;52276.88;5059089;28;20496;-71
2021/10/13 09:57:25;;;;;;;;;;;;;;;-144.99;71.62;52248.34;5038974;28;20434;-68
2021/10/13 10:00:02;;;;;;;;;;;;;;;-144.99;68.43;52219.81;5043249;28;19997;-69
2021/10/13 10:02:30;;;;;;;;;;;;;;;-144.99;65.16;52215.75;5051721;28;19996;-70
2021/10/13 10:05:00;;;;;;;;;;;;;;;-144.99;62.44;52172.94;5046639;28;20315;-70
2021/10/13 10:07:27;;;;;;;;;;;;;;;-144.99;59.91;52183.13;5034538;28;19981;-69
2021/10/13 10:10:07;;;;;;;;;;;;;;;-144.99;57.55;52146.44;5038061;28;19981;-69
2021/10/13 10:12:48;;;;;;;;;;;;;;;-144.99;54.34;52101.59;5029454;28;20040;-70
2021/10/13 10:15:26;;;;;;;;;;;;;;;-144.99;53.46;52146.44;5032499;28;20087;-69
2021/10/13 10:17:53;;;;;;;;;;;;;;;-144.99;53.82;52138.28;5038481;28;19992;-69
2021/10/13 10:20:33;;;;;;;;;;;;;;;-144.99;53.28;52121.97;5029736;28;19998;-70
2021/10/13 10:23:00;;;;;;;;;;;;;;;-144.99;53.21;52244.28;5029938;28;20478;-69
2021/10/13 10:25:35;;;;;;;;;;;;;;;-144.99;54.04;52254.47;5056000;28;19977;-70
2021/10/13 10:28:01;;;;;;;;;;;;;;;-144.99;54.90;52264.66;5061845;28;19996;-69
2021/10/13 10:30:27;;;;;;;;;;;;;;;-144.99;56.25;52244.28;5029987;28;20437;-69
2021/10/13 10:33:14;;;;;;;;;;;;;;;-144.99;56.60;52289.13;5029832;28;19998;-69
2021/10/13 10:35:43;;;;;;;;;;;;;;;-144.99;57.69;52301.34;5053328;28;19977;-70
2021/10/13 10:38:10;;;;;;;;;;;;;;;-144.99;59.79;52313.56;5030816;28;19982;-70
2021/10/13 10:40:38;;;;;;;;;;;;;;;-144.99;60.73;52301.34;5042557;28;20054;-69
2021/10/13 10:43:06;;;;;;;;;;;;;;;-144.99;62.08;52331.91;5029164;28;20005;-70
2021/10/13 10:45:33;;;;;;;;;;;;;;;-144.99;64.48;52354.34;5050042;28;19981;-67
2021/10/13 10:48:08;;;;;;;;;;;;;;;-144.99;65.61;52354.34;5031047;28;19981;-71
2021/10/13 10:50:37;;;;;;;;;;;;;;;-144.99;66.80;52317.66;5040557;28;19966;-71
2021/10/13 10:53:10;;;;;;;;;;;;;;;-144.99;67.54;52321.72;5029151;28;19997;-71
2021/10/13 10:55:37;;;;;;;;;;;;;;;-144.99;66.79;52256.50;5029979;28;20455;-72
2021/10/13 10:58:13;;;;;;;;;;;;;;;-144.99;64.69;52327.84;5030234;28;20096;-72
2021/10/13 11:00:40;;;;;;;;;;;;;;;-144.99;61.72;52260.56;5042050;28;19996;-72
2021/10/13 11:03:17;;;;;;;;;;;;;;;-144.99;62.24;52342.09;5041901;28;19995;-71
2021/10/13 11:05:43;;;;;;;;;;;;;;;-144.99;61.23;52262.63;5059827;28;19972;-71
2021/10/13 11:08:11;;;;;;;;;;;;;;;-144.99;60.41;52240.19;5029567;28;19996;-71
2021/10/13 11:10:38;;;;;;;;;;;;;;;-144.99;59.92;52117.91;5034761;28;20390;-71
2021/10/13 11:13:05;;;;;;;;;;;;;;;-144.99;55.96;52089.38;5036247;28;20485;-71
2021/10/13 11:15:32;;;;;;;;;;;;;;;-144.99;49.89;52036.38;5038043;28;19982;-71
2021/10/13 11:18:09;;;;;;;;;;;;;;;-144.99;46.73;52054.72;5046671;28;19986;-72
2021/10/13 11:20:36;;;;;;;;;;;;;;;-144.99;44.71;51997.66;5044105;28;20001;-71
2021/10/13 11:23:03;;;;;;;;;;;;;;;-144.99;42.11;52001.75;5050402;28;19989;-71
2021/10/13 11:25:30;;;;;;;;;;;;;;;-144.99;40.53;51987.47;5038899;28;19981;-72
2021/10/13 11:27:59;;;;;;;;;;;;;;;-144.99;39.64;52032.31;5037423;28;19981;-72
2021/10/13 11:30:25;;;;;;;;;;;;;;;-144.99;40.12;51999.69;5036211;28;20096;-72
2021/10/13 11:32:52;;;;;;;;;;;;;;;-144.99;40.36;52003.78;5030440;28;19997;-72
2021/10/13 11:35:19;;;;;;;;;;;;;;;-144.99;38.68;52146.44;5034237;28;20077;-72
2021/10/13 11:37:47;;;;;;;;;;;;;;;-144.99;38.88;52213.69;5049804;28;19985;-71
2021/10/13 11:40:14;;;;;;;;;;;;;;;-144.99;41.50;52262.63;5036242;28;20013;-71
2021/10/13 11:42:41;;;;;;;;;;;;;;;-144.99;44.71;52297.25;5042555;28;19998;-73
2021/10/13 11:45:13;;;;;;;;;;;;;;;-144.99;47.96;52388.97;5033605;28;20434;-72
2021/10/13 11:47:39;;;;;;;;;;;;;;;-144.99;50.39;52397.13;5042852;28;20035;-72
2021/10/13 11:50:07;;;;;;;;;;;;;;;-144.99;52.33;52419.56;5035683;28;20357;-70
2021/10/13 11:52:33;;;;;;;;;;;;;;;-144.99;53.86;52407.31;5056908;28;19993;-70
2021/10/13 11:55:01;;;;;;;;;;;;;;;-144.99;53.98;52456.25;5061272;28;19983;-70
2021/10/13 11:57:27;;;;;;;;;;;;;;;-144.99;54.23;52439.94;5053146;28;20318;-71
2021/10/13 12:00:16;;;;;;;;;;;;;;;-144.99;54.75;52415.47;5040687;28;19997;-71
2021/10/13 12:02:43;;;;;;;;;;;;;;;-144.99;55.23;52439.94;5053117;28;19996;-70
2021/10/13 12:05:12;;;;;;;;;;;;;;;-144.99;55.33;52409.38;5046941;28;20024;-70
2021/10/13 12:07:43;;;;;;;;;;;;;;;-144.99;55.35;52435.88;5039096;28;19997;-70
2021/10/13 12:10:10;;;;;;;;;;;;;;;-144.99;55.73;52411.41;5038872;28;19986;-70
2021/10/13 12:12:36;;;;;;;;;;;;;;;-144.99;55.98;52431.78;5055640;28;20019;-70
2021/10/13 12:15:17;;;;;;;;;;;;;;;-144.99;56.32;52439.94;5045292;28;19992;-70
2021/10/13 12:17:44;;;;;;;;;;;;;;;-144.99;56.99;52395.09;5032028;28;20032;-70
2021/10/13 12:20:16;;;;;;;;;;;;;;;-144.99;57.44;52419.56;5031986;28;20427;-71
2021/10/13 12:22:47;;;;;;;;;;;;;;;-144.99;59.02;52431.78;5036968;28;19999;-70
2021/10/13 12:25:23;;;;;;;;;;;;;;;-144.99;63.41;52452.16;5055105;28;19973;-70